Schedule Details

Flight Number: ASXVIP4X
Departure: Warszawa Chopina (EPWA) at 1800Z
Arrival: Gdansk im. Lecha Walesy (EPGD) at 1900Z

Weather Information
EPWA 272300Z 07005KT CAVOK 17/11 Q1023 NOSIG
EPGD 272300Z 06004KT 020V110 CAVOK 16/15 Q1025

Schedule Frequency

Route Map